sensor_id;sensor_type;location;lat;lon;timestamp;temperature;humidity
43772;HTU21D;59066;54.782;32.024;2023-05-10T00:02:12;8.90;34.34
43772;HTU21D;59066;54.782;32.024;2023-05-10T00:04:40;8.87;34.45
43772;HTU21D;59066;54.782;32.024;2023-05-10T00:07:08;8.85;34.58
43772;HTU21D;59066;54.782;32.024;2023-05-10T00:09:35;8.78;34.55
43772;HTU21D;59066;54.782;32.024;2023-05-10T00:12:03;8.74;34.54
43772;HTU21D;59066;54.782;32.024;2023-05-10T00:14:30;8.70;34.37
43772;HTU21D;59066;54.782;32.024;2023-05-10T00:16:58;8.70;34.37
43772;HTU21D;59066;54.782;32.024;2023-05-10T00:19:25;8.70;34.36
43772;HTU21D;59066;54.782;32.024;2023-05-10T00:21:53;8.70;34.32
43772;HTU21D;59066;54.782;32.024;2023-05-10T00:24:21;8.64;34.40
43772;HTU21D;59066;54.782;32.024;2023-05-10T00:26:48;8.61;34.52
43772;HTU21D;59066;54.782;32.024;2023-05-10T00:29:16;8.60;34.50
43772;HTU21D;59066;54.782;32.024;2023-05-10T00:31:43;8.53;34.61
43772;HTU21D;59066;54.782;32.024;2023-05-10T00:34:11;8.50;34.67
43772;HTU21D;59066;54.782;32.024;2023-05-10T00:36:39;8.44;34.73
43772;HTU21D;59066;54.782;32.024;2023-05-10T00:39:06;8.42;34.85
43772;HTU21D;59066;54.782;32.024;2023-05-10T00:41:35;8.39;34.95
43772;HTU21D;59066;54.782;32.024;2023-05-10T00:44:04;8.39;35.11
43772;HTU21D;59066;54.782;32.024;2023-05-10T00:46:32;8.38;35.28
43772;HTU21D;59066;54.782;32.024;2023-05-10T00:49:00;8.36;35.21
43772;HTU21D;59066;54.782;32.024;2023-05-10T00:51:29;8.30;35.20
43772;HTU21D;59066;54.782;32.024;2023-05-10T00:53:56;8.22;35.40
43772;HTU21D;59066;54.782;32.024;2023-05-10T00:56:25;8.20;35.47
43772;HTU21D;59066;54.782;32.024;2023-05-10T00:58:52;8.16;35.44
43772;HTU21D;59066;54.782;32.024;2023-05-10T01:01:20;8.14;35.45
43772;HTU21D;59066;54.782;32.024;2023-05-10T01:03:48;8.14;35.48
43772;HTU21D;59066;54.782;32.024;2023-05-10T01:06:16;8.19;35.48
43772;HTU21D;59066;54.782;32.024;2023-05-10T01:08:43;8.22;35.62
43772;HTU21D;59066;54.782;32.024;2023-05-10T01:11:11;8.24;35.72
43772;HTU21D;59066;54.782;32.024;2023-05-10T01:13:41;8.19;35.87
43772;HTU21D;59066;54.782;32.024;2023-05-10T01:16:09;8.16;35.87
43772;HTU21D;59066;54.782;32.024;2023-05-10T01:18:39;8.14;35.98
43772;HTU21D;59066;54.782;32.024;2023-05-10T01:21:26;8.06;36.44
43772;HTU21D;59066;54.782;32.024;2023-05-10T01:38:05;8.03;37.13
43772;HTU21D;59066;54.782;32.024;2023-05-10T01:43:30;7.91;37.51
43772;HTU21D;59066;54.782;32.024;2023-05-10T01:46:14;7.91;38.05
43772;HTU21D;59066;54.782;32.024;2023-05-10T01:48:53;7.94;37.66
43772;HTU21D;59066;54.782;32.024;2023-05-10T01:51:27;8.00;37.34
43772;HTU21D;59066;54.782;32.024;2023-05-10T01:54:01;8.02;37.33
43772;HTU21D;59066;54.782;32.024;2023-05-10T01:56:32;8.02;37.45
43772;HTU21D;59066;54.782;32.024;2023-05-10T01:59:00;7.99;37.80
43772;HTU21D;59066;54.782;32.024;2023-05-10T02:01:33;7.97;38.13
43772;HTU21D;59066;54.782;32.024;2023-05-10T02:04:01;7.91;38.30
43772;HTU21D;59066;54.782;32.024;2023-05-10T02:06:30;7.85;38.36
43772;HTU21D;59066;54.782;32.024;2023-05-10T02:09:01;7.81;38.46
43772;HTU21D;59066;54.782;32.024;2023-05-10T02:11:30;7.78;38.43
43772;HTU21D;59066;54.782;32.024;2023-05-10T02:13:59;7.75;38.46
43772;HTU21D;59066;54.782;32.024;2023-05-10T02:16:28;7.76;38.72
43772;HTU21D;59066;54.782;32.024;2023-05-10T02:19:00;7.69;38.89
43772;HTU21D;59066;54.782;32.024;2023-05-10T02:21:29;7.68;38.72
43772;HTU21D;59066;54.782;32.024;2023-05-10T02:23:59;7.69;38.56
43772;HTU21D;59066;54.782;32.024;2023-05-10T02:26:28;7.79;38.26
43772;HTU21D;59066;54.782;32.024;2023-05-10T02:28:58;7.84;38.04
43772;HTU21D;59066;54.782;32.024;2023-05-10T02:31:27;7.94;37.85
43772;HTU21D;59066;54.782;32.024;2023-05-10T02:33:55;8.02;37.80
43772;HTU21D;59066;54.782;32.024;2023-05-10T02:36:25;8.13;37.86
43772;HTU21D;59066;54.782;32.024;2023-05-10T02:38:55;8.18;38.26
43772;HTU21D;59066;54.782;32.024;2023-05-10T02:41:24;8.18;38.21
43772;HTU21D;59066;54.782;32.024;2023-05-10T02:43:56;8.20;37.95
43772;HTU21D;59066;54.782;32.024;2023-05-10T02:46:24;8.31;37.70
43772;HTU21D;59066;54.782;32.024;2023-05-10T02:48:52;8.36;37.57
43772;HTU21D;59066;54.782;32.024;2023-05-10T02:51:20;8.45;37.71
43772;HTU21D;59066;54.782;32.024;2023-05-10T02:53:53;8.53;37.53
43772;HTU21D;59066;54.782;32.024;2023-05-10T02:56:25;8.51;37.37
43772;HTU21D;59066;54.782;32.024;2023-05-10T02:58:55;8.51;37.41
43772;HTU21D;59066;54.782;32.024;2023-05-10T03:01:23;8.53;37.67
43772;HTU21D;59066;54.782;32.024;2023-05-10T03:03:51;8.52;37.73
43772;HTU21D;59066;54.782;32.024;2023-05-10T03:06:18;8.57;37.53
43772;HTU21D;59066;54.782;32.024;2023-05-10T03:08:46;8.61;37.37
43772;HTU21D;59066;54.782;32.024;2023-05-10T03:11:16;8.65;37.50
43772;HTU21D;59066;54.782;32.024;2023-05-10T03:14:14;8.64;37.91
43772;HTU21D;59066;54.782;32.024;2023-05-10T03:16:56;8.64;37.53
43772;HTU21D;59066;54.782;32.024;2023-05-10T03:19:30;8.65;37.43
43772;HTU21D;59066;54.782;32.024;2023-05-10T03:21:59;8.71;37.37
43772;HTU21D;59066;54.782;32.024;2023-05-10T03:24:34;8.73;37.32
43772;HTU21D;59066;54.782;32.024;2023-05-10T03:27:03;8.76;37.29
43772;HTU21D;59066;54.782;32.024;2023-05-10T03:29:33;8.72;37.16
43772;HTU21D;59066;54.782;32.024;2023-05-10T03:32:01;8.76;37.06
43772;HTU21D;59066;54.782;32.024;2023-05-10T03:34:31;8.79;37.07
43772;HTU21D;59066;54.782;32.024;2023-05-10T03:36:58;8.86;36.95
43772;HTU21D;59066;54.782;32.024;2023-05-10T03:39:29;8.91;36.85
43772;HTU21D;59066;54.782;32.024;2023-05-10T03:41:59;8.86;37.03
43772;HTU21D;59066;54.782;32.024;2023-05-10T03:44:26;8.87;36.98
43772;HTU21D;59066;54.782;32.024;2023-05-10T03:46:54;8.91;36.89
43772;HTU21D;59066;54.782;32.024;2023-05-10T03:49:21;8.96;36.79
43772;HTU21D;59066;54.782;32.024;2023-05-10T03:51:49;9.02;36.64
43772;HTU21D;59066;54.782;32.024;2023-05-10T03:54:17;9.09;36.57
43772;HTU21D;59066;54.782;32.024;2023-05-10T03:56:45;9.15;36.43
43772;HTU21D;59066;54.782;32.024;2023-05-10T03:59:16;9.17;36.66
43772;HTU21D;59066;54.782;32.024;2023-05-10T04:01:43;9.21;36.65
43772;HTU21D;59066;54.782;32.024;2023-05-10T04:04:11;9.25;36.56
43772;HTU21D;59066;54.782;32.024;2023-05-10T04:06:39;9.35;36.44
43772;HTU21D;59066;54.782;32.024;2023-05-10T04:09:07;9.41;36.31
43772;HTU21D;59066;54.782;32.024;2023-05-10T04:11:35;9.48;36.21
43772;HTU21D;59066;54.782;32.024;2023-05-10T04:14:03;9.41;36.05
43772;HTU21D;59066;54.782;32.024;2023-05-10T04:16:30;9.40;35.98
43772;HTU21D;59066;54.782;32.024;2023-05-10T04:18:58;9.44;35.94
43772;HTU21D;59066;54.782;32.024;2023-05-10T04:21:26;9.50;35.89
43772;HTU21D;59066;54.782;32.024;2023-05-10T04:23:54;9.52;35.73
43772;HTU21D;59066;54.782;32.024;2023-05-10T04:26:22;9.47;35.67
43772;HTU21D;59066;54.782;32.024;2023-05-10T04:28:49;9.46;35.68
43772;HTU21D;59066;54.782;32.024;2023-05-10T04:31:17;9.56;35.49
43772;HTU21D;59066;54.782;32.024;2023-05-10T04:33:44;9.65;35.34
43772;HTU21D;59066;54.782;32.024;2023-05-10T04:36:12;9.71;35.23
43772;HTU21D;59066;54.782;32.024;2023-05-10T04:38:39;9.78;35.08
43772;HTU21D;59066;54.782;32.024;2023-05-10T04:41:08;9.74;35.08
43772;HTU21D;59066;54.782;32.024;2023-05-10T04:43:37;9.76;35.04
43772;HTU21D;59066;54.782;32.024;2023-05-10T04:46:05;9.76;35.07
43772;HTU21D;59066;54.782;32.024;2023-05-10T04:48:33;9.74;35.11
43772;HTU21D;59066;54.782;32.024;2023-05-10T04:51:00;9.75;35.19
43772;HTU21D;59066;54.782;32.024;2023-05-10T04:53:28;9.83;35.16
43772;HTU21D;59066;54.782;32.024;2023-05-10T04:55:56;9.93;35.22
43772;HTU21D;59066;54.782;32.024;2023-05-10T04:58:23;9.99;35.31
43772;HTU21D;59066;54.782;32.024;2023-05-10T05:00:51;10.13;35.36
43772;HTU21D;59066;54.782;32.024;2023-05-10T05:03:18;10.23;35.28
43772;HTU21D;59066;54.782;32.024;2023-05-10T05:05:46;10.30;35.37
43772;HTU21D;59066;54.782;32.024;2023-05-10T05:08:14;10.41;35.39
43772;HTU21D;59066;54.782;32.024;2023-05-10T05:10:41;10.45;35.45
43772;HTU21D;59066;54.782;32.024;2023-05-10T05:13:09;10.52;35.52
43772;HTU21D;59066;54.782;32.024;2023-05-10T05:15:36;10.59;35.57
43772;HTU21D;59066;54.782;32.024;2023-05-10T05:18:04;10.71;35.56
43772;HTU21D;59066;54.782;32.024;2023-05-10T05:20:32;10.88;35.50
43772;HTU21D;59066;54.782;32.024;2023-05-10T05:23:01;11.02;35.38
43772;HTU21D;59066;54.782;32.024;2023-05-10T05:25:29;11.09;35.34
43772;HTU21D;59066;54.782;32.024;2023-05-10T05:27:56;11.16;35.24
43772;HTU21D;59066;54.782;32.024;2023-05-10T05:30:24;11.19;35.25
43772;HTU21D;59066;54.782;32.024;2023-05-10T05:32:51;11.25;35.25
43772;HTU21D;59066;54.782;32.024;2023-05-10T05:35:19;11.26;35.21
43772;HTU21D;59066;54.782;32.024;2023-05-10T05:37:47;11.33;35.23
43772;HTU21D;59066;54.782;32.024;2023-05-10T05:40:14;11.44;35.28
43772;HTU21D;59066;54.782;32.024;2023-05-10T05:42:42;11.63;35.19
43772;HTU21D;59066;54.782;32.024;2023-05-10T05:45:09;11.67;35.34
43772;HTU21D;59066;54.782;32.024;2023-05-10T05:47:40;11.79;35.16
43772;HTU21D;59066;54.782;32.024;2023-05-10T05:50:08;11.93;35.04
43772;HTU21D;59066;54.782;32.024;2023-05-10T05:52:36;12.14;34.86
43772;HTU21D;59066;54.782;32.024;2023-05-10T05:55:04;12.29;34.78
43772;HTU21D;59066;54.782;32.024;2023-05-10T05:57:32;12.46;34.50
43772;HTU21D;59066;54.782;32.024;2023-05-10T06:00:00;12.57;34.27
43772;HTU21D;59066;54.782;32.024;2023-05-10T06:02:38;12.73;34.18
43772;HTU21D;59066;54.782;32.024;2023-05-10T06:05:08;12.88;33.68
43772;HTU21D;59066;54.782;32.024;2023-05-10T06:07:36;12.88;33.66
43772;HTU21D;59066;54.782;32.024;2023-05-10T06:10:04;12.94;33.27
43772;HTU21D;59066;54.782;32.024;2023-05-10T06:12:32;12.85;32.96
43772;HTU21D;59066;54.782;32.024;2023-05-10T06:15:00;12.89;32.60
43772;HTU21D;59066;54.782;32.024;2023-05-10T06:17:29;13.01;32.50
43772;HTU21D;59066;54.782;32.024;2023-05-10T06:19:57;13.14;32.29
43772;HTU21D;59066;54.782;32.024;2023-05-10T06:22:24;13.33;32.09
43772;HTU21D;59066;54.782;32.024;2023-05-10T06:24:52;13.40;31.93
43772;HTU21D;59066;54.782;32.024;2023-05-10T06:27:19;13.35;31.67
43772;HTU21D;59066;54.782;32.024;2023-05-10T06:29:47;13.34;31.45
43772;HTU21D;59066;54.782;32.024;2023-05-10T06:32:17;13.30;31.22
43772;HTU21D;59066;54.782;32.024;2023-05-10T06:34:45;13.37;31.17
43772;HTU21D;59066;54.782;32.024;2023-05-10T06:37:13;13.45;31.09
43772;HTU21D;59066;54.782;32.024;2023-05-10T06:39:40;13.50;30.99
43772;HTU21D;59066;54.782;32.024;2023-05-10T06:42:08;13.67;30.66
43772;HTU21D;59066;54.782;32.024;2023-05-10T06:44:36;13.75;30.05
43772;HTU21D;59066;54.782;32.024;2023-05-10T06:47:03;13.71;29.55
43772;HTU21D;59066;54.782;32.024;2023-05-10T06:49:31;13.73;29.24
43772;HTU21D;59066;54.782;32.024;2023-05-10T06:51:59;13.69;29.06
43772;HTU21D;59066;54.782;32.024;2023-05-10T06:54:26;13.65;28.89
43772;HTU21D;59066;54.782;32.024;2023-05-10T06:56:54;13.67;28.87
43772;HTU21D;59066;54.782;32.024;2023-05-10T06:59:22;13.77;28.82
43772;HTU21D;59066;54.782;32.024;2023-05-10T07:01:49;13.84;28.64
43772;HTU21D;59066;54.782;32.024;2023-05-10T07:04:17;13.86;28.42
43772;HTU21D;59066;54.782;32.024;2023-05-10T07:06:45;13.92;28.40
43772;HTU21D;59066;54.782;32.024;2023-05-10T07:09:13;13.94;28.19
43772;HTU21D;59066;54.782;32.024;2023-05-10T07:11:41;13.92;28.06
43772;HTU21D;59066;54.782;32.024;2023-05-10T07:14:08;13.85;28.00
43772;HTU21D;59066;54.782;32.024;2023-05-10T07:16:36;13.81;27.64
43772;HTU21D;59066;54.782;32.024;2023-05-10T07:19:04;13.88;27.68
43772;HTU21D;59066;54.782;32.024;2023-05-10T07:21:32;13.99;27.33
43772;HTU21D;59066;54.782;32.024;2023-05-10T07:24:00;14.06;27.06
43772;HTU21D;59066;54.782;32.024;2023-05-10T07:26:28;14.12;26.49
43772;HTU21D;59066;54.782;32.024;2023-05-10T07:28:56;14.18;26.05
43772;HTU21D;59066;54.782;32.024;2023-05-10T07:31:23;14.22;25.68
43772;HTU21D;59066;54.782;32.024;2023-05-10T07:33:51;14.26;25.27
43772;HTU21D;59066;54.782;32.024;2023-05-10T07:36:18;14.26;25.41
43772;HTU21D;59066;54.782;32.024;2023-05-10T07:38:46;14.37;24.85
43772;HTU21D;59066;54.782;32.024;2023-05-10T07:41:14;14.44;24.74
43772;HTU21D;59066;54.782;32.024;2023-05-10T07:43:41;14.50;24.72
43772;HTU21D;59066;54.782;32.024;2023-05-10T07:46:09;14.51;24.45
43772;HTU21D;59066;54.782;32.024;2023-05-10T07:48:37;14.54;24.76
43772;HTU21D;59066;54.782;32.024;2023-05-10T07:51:05;14.62;24.17
43772;HTU21D;59066;54.782;32.024;2023-05-10T07:53:34;14.60;23.51
43772;HTU21D;59066;54.782;32.024;2023-05-10T07:56:29;14.60;23.45
43772;HTU21D;59066;54.782;32.024;2023-05-10T07:58:57;14.64;23.57
43772;HTU21D;59066;54.782;32.024;2023-05-10T08:01:25;14.71;23.90
43772;HTU21D;59066;54.782;32.024;2023-05-10T08:03:53;14.94;23.86
43772;HTU21D;59066;54.782;32.024;2023-05-10T08:06:21;15.17;23.85
43772;HTU21D;59066;54.782;32.024;2023-05-10T08:08:49;15.41;23.53
43772;HTU21D;59066;54.782;32.024;2023-05-10T08:11:18;15.62;23.12
43772;HTU21D;59066;54.782;32.024;2023-05-10T08:13:46;15.76;22.55
43772;HTU21D;59066;54.782;32.024;2023-05-10T08:16:14;15.87;22.24
43772;HTU21D;59066;54.782;32.024;2023-05-10T08:18:44;15.93;21.75
43772;HTU21D;59066;54.782;32.024;2023-05-10T08:21:13;15.81;21.81
43772;HTU21D;59066;54.782;32.024;2023-05-10T08:23:41;15.83;20.86
43772;HTU21D;59066;54.782;32.024;2023-05-10T08:26:11;15.59;21.37
43772;HTU21D;59066;54.782;32.024;2023-05-10T08:28:38;15.53;22.18
43772;HTU21D;59066;54.782;32.024;2023-05-10T08:31:06;15.54;22.24
43772;HTU21D;59066;54.782;32.024;2023-05-10T08:33:34;15.36;21.47
43772;HTU21D;59066;54.782;32.024;2023-05-10T08:36:01;15.19;21.62
43772;HTU21D;59066;54.782;32.024;2023-05-10T08:38:29;15.21;21.74
43772;HTU21D;59066;54.782;32.024;2023-05-10T08:40:57;15.31;21.76
43772;HTU21D;59066;54.782;32.024;2023-05-10T08:43:27;15.37;21.50
43772;HTU21D;59066;54.782;32.024;2023-05-10T08:46:00;15.39;21.32
43772;HTU21D;59066;54.782;32.024;2023-05-10T08:48:33;15.51;21.32
43772;HTU21D;59066;54.782;32.024;2023-05-10T08:51:02;15.62;21.32
43772;HTU21D;59066;54.782;32.024;2023-05-10T08:53:33;15.60;21.37
43772;HTU21D;59066;54.782;32.024;2023-05-10T08:56:03;15.66;21.75
43772;HTU21D;59066;54.782;32.024;2023-05-10T08:58:31;15.67;21.90
43772;HTU21D;59066;54.782;32.024;2023-05-10T09:00:59;15.84;21.77
43772;HTU21D;59066;54.782;32.024;2023-05-10T09:03:28;16.02;21.69
43772;HTU21D;59066;54.782;32.024;2023-05-10T09:05:56;16.25;21.61
43772;HTU21D;59066;54.782;32.024;2023-05-10T09:08:26;16.43;21.50
43772;HTU21D;59066;54.782;32.024;2023-05-10T09:10:57;16.72;21.23
43772;HTU21D;59066;54.782;32.024;2023-05-10T09:13:25;16.90;21.13
43772;HTU21D;59066;54.782;32.024;2023-05-10T09:15:53;17.04;20.57
43772;HTU21D;59066;54.782;32.024;2023-05-10T09:18:21;16.98;20.67
43772;HTU21D;59066;54.782;32.024;2023-05-10T09:20:49;17.14;20.70
43772;HTU21D;59066;54.782;32.024;2023-05-10T09:23:16;17.28;20.60
43772;HTU21D;59066;54.782;32.024;2023-05-10T09:25:44;17.32;20.27
43772;HTU21D;59066;54.782;32.024;2023-05-10T09:28:11;17.31;20.10
43772;HTU21D;59066;54.782;32.024;2023-05-10T09:30:39;16.92;19.60
43772;HTU21D;59066;54.782;32.024;2023-05-10T09:33:07;16.65;19.97
43772;HTU21D;59066;54.782;32.024;2023-05-10T09:35:35;16.84;19.73
43772;HTU21D;59066;54.782;32.024;2023-05-10T09:38:04;17.02;19.73
43772;HTU21D;59066;54.782;32.024;2023-05-10T09:40:32;16.99;19.76
43772;HTU21D;59066;54.782;32.024;2023-05-10T09:43:02;17.03;19.95
43772;HTU21D;59066;54.782;32.024;2023-05-10T09:45:32;16.99;20.10
43772;HTU21D;59066;54.782;32.024;2023-05-10T09:48:03;17.49;19.84
43772;HTU21D;59066;54.782;32.024;2023-05-10T09:50:30;17.95;19.48
43772;HTU21D;59066;54.782;32.024;2023-05-10T09:53:00;18.18;19.30
43772;HTU21D;59066;54.782;32.024;2023-05-10T09:55:44;18.26;18.29
43772;HTU21D;59066;54.782;32.024;2023-05-10T09:58:13;18.23;19.12
43772;HTU21D;59066;54.782;32.024;2023-05-10T10:00:45;18.34;18.72
43772;HTU21D;59066;54.782;32.024;2023-05-10T10:03:17;18.14;19.17
43772;HTU21D;59066;54.782;32.024;2023-05-10T10:05:46;18.26;19.03
43772;HTU21D;59066;54.782;32.024;2023-05-10T10:08:14;18.44;18.99
43772;HTU21D;59066;54.782;32.024;2023-05-10T10:10:42;18.56;18.82
43772;HTU21D;59066;54.782;32.024;2023-05-10T10:13:14;18.56;18.64
43772;HTU21D;59066;54.782;32.024;2023-05-10T10:15:43;18.41;18.58
43772;HTU21D;59066;54.782;32.024;2023-05-10T10:18:14;18.48;18.50
43772;HTU21D;59066;54.782;32.024;2023-05-10T10:20:42;18.57;18.46
43772;HTU21D;59066;54.782;32.024;2023-05-10T10:23:10;18.64;18.39
43772;HTU21D;59066;54.782;32.024;2023-05-10T10:25:39;19.30;18.79
43772;HTU21D;59066;54.782;32.024;2023-05-10T10:31:40;20.40;17.35
43772;HTU21D;59066;54.782;32.024;2023-05-10T10:34:10;21.64;18.05
43772;HTU21D;59066;54.782;32.024;2023-05-10T10:36:45;22.83;17.48
43772;HTU21D;59066;54.782;32.024;2023-05-10T10:39:14;23.55;16.77
43772;HTU21D;59066;54.782;32.024;2023-05-10T10:41:54;23.79;13.45
43772;HTU21D;59066;54.782;32.024;2023-05-10T10:44:22;23.10;15.16
43772;HTU21D;59066;54.782;32.024;2023-05-10T10:49:31;22.23;14.32
43772;HTU21D;59066;54.782;32.024;2023-05-10T10:52:27;22.20;14.32
43772;HTU21D;59066;54.782;32.024;2023-05-10T10:55:07;22.16;14.39
43772;HTU21D;59066;54.782;32.024;2023-05-10T11:03:03;21.80;14.93
43772;HTU21D;59066;54.782;32.024;2023-05-10T11:05:42;21.60;15.68
43772;HTU21D;59066;54.782;32.024;2023-05-10T11:08:16;21.22;14.92
43772;HTU21D;59066;54.782;32.024;2023-05-10T11:13:42;20.69;15.54
43772;HTU21D;59066;54.782;32.024;2023-05-10T11:21:21;20.27;15.65
43772;HTU21D;59066;54.782;32.024;2023-05-10T11:23:57;19.96;15.95
43772;HTU21D;59066;54.782;32.024;2023-05-10T11:26:35;20.91;16.77
43772;HTU21D;59066;54.782;32.024;2023-05-10T11:29:03;21.84;17.08
43772;HTU21D;59066;54.782;32.024;2023-05-10T11:31:32;22.09;15.61
43772;HTU21D;59066;54.782;32.024;2023-05-10T11:34:00;21.90;16.02
43772;HTU21D;59066;54.782;32.024;2023-05-10T11:36:35;22.09;16.65
43772;HTU21D;59066;54.782;32.024;2023-05-10T11:39:04;22.32;16.63
43772;HTU21D;59066;54.782;32.024;2023-05-10T11:41:32;23.07;16.36
43772;HTU21D;59066;54.782;32.024;2023-05-10T11:43:59;23.56;15.75
43772;HTU21D;59066;54.782;32.024;2023-05-10T11:46:27;24.13;15.34
43772;HTU21D;59066;54.782;32.024;2023-05-10T11:48:58;25.28;14.26
43772;HTU21D;59066;54.782;32.024;2023-05-10T11:51:28;24.80;13.55
43772;HTU21D;59066;54.782;32.024;2023-05-10T11:53:56;25.30;13.48
43772;HTU21D;59066;54.782;32.024;2023-05-10T11:56:24;26.39;13.04
43772;HTU21D;59066;54.782;32.024;2023-05-10T11:58:55;27.34;12.32
43772;HTU21D;59066;54.782;32.024;2023-05-10T12:01:24;27.93;11.92
43772;HTU21D;59066;54.782;32.024;2023-05-10T12:03:54;28.87;11.40
43772;HTU21D;59066;54.782;32.024;2023-05-10T12:06:25;29.48;10.81
43772;HTU21D;59066;54.782;32.024;2023-05-10T12:08:53;29.35;10.24
43772;HTU21D;59066;54.782;32.024;2023-05-10T12:11:24;28.09;9.43
43772;HTU21D;59066;54.782;32.024;2023-05-10T12:13:53;27.36;10.04
43772;HTU21D;59066;54.782;32.024;2023-05-10T12:16:23;26.93;9.83
43772;HTU21D;59066;54.782;32.024;2023-05-10T12:18:51;26.15;9.88
43772;HTU21D;59066;54.782;32.024;2023-05-10T12:21:23;25.23;10.50
43772;HTU21D;59066;54.782;32.024;2023-05-10T12:23:52;24.91;10.71
43772;HTU21D;59066;54.782;32.024;2023-05-10T12:26:24;24.75;10.76
43772;HTU21D;59066;54.782;32.024;2023-05-10T12:29:16;24.61;10.75
43772;HTU21D;59066;54.782;32.024;2023-05-10T12:31:56;24.45;10.86
43772;HTU21D;59066;54.782;32.024;2023-05-10T12:36:53;24.02;11.13
43772;HTU21D;59066;54.782;32.024;2023-05-10T12:39:21;23.88;11.22
43772;HTU21D;59066;54.782;32.024;2023-05-10T12:41:48;23.42;11.44
43772;HTU21D;59066;54.782;32.024;2023-05-10T12:44:16;23.11;11.86
43772;HTU21D;59066;54.782;32.024;2023-05-10T12:46:44;23.03;11.94
43772;HTU21D;59066;54.782;32.024;2023-05-10T12:49:11;22.95;12.04
43772;HTU21D;59066;54.782;32.024;2023-05-10T12:51:39;23.37;12.20
43772;HTU21D;59066;54.782;32.024;2023-05-10T12:54:06;23.99;12.26
43772;HTU21D;59066;54.782;32.024;2023-05-10T12:56:34;24.44;12.47
43772;HTU21D;59066;54.782;32.024;2023-05-10T12:59:02;25.33;12.23
43772;HTU21D;59066;54.782;32.024;2023-05-10T13:01:29;26.04;11.83
43772;HTU21D;59066;54.782;32.024;2023-05-10T13:03:56;26.60;11.40
43772;HTU21D;59066;54.782;32.024;2023-05-10T13:06:24;27.68;11.01
43772;HTU21D;59066;54.782;32.024;2023-05-10T13:08:52;28.37;10.37
43772;HTU21D;59066;54.782;32.024;2023-05-10T13:11:19;28.30;9.87
43772;HTU21D;59066;54.782;32.024;2023-05-10T13:13:48;27.74;9.76
43772;HTU21D;59066;54.782;32.024;2023-05-10T13:16:16;27.01;9.81
43772;HTU21D;59066;54.782;32.024;2023-05-10T13:18:43;26.42;10.04
43772;HTU21D;59066;54.782;32.024;2023-05-10T13:21:11;25.91;10.22
43772;HTU21D;59066;54.782;32.024;2023-05-10T13:23:39;25.37;10.44
43772;HTU21D;59066;54.782;32.024;2023-05-10T13:26:06;24.73;10.60
43772;HTU21D;59066;54.782;32.024;2023-05-10T13:28:34;24.18;10.79
43772;HTU21D;59066;54.782;32.024;2023-05-10T13:31:01;23.82;11.01
43772;HTU21D;59066;54.782;32.024;2023-05-10T13:33:29;23.50;11.44
43772;HTU21D;59066;54.782;32.024;2023-05-10T13:35:56;23.22;11.65
43772;HTU21D;59066;54.782;32.024;2023-05-10T13:38:24;23.01;11.85
43772;HTU21D;59066;54.782;32.024;2023-05-10T13:40:51;22.78;12.19
43772;HTU21D;59066;54.782;32.024;2023-05-10T13:43:19;22.38;12.77
43772;HTU21D;59066;54.782;32.024;2023-05-10T13:45:47;22.39;12.85
43772;HTU21D;59066;54.782;32.024;2023-05-10T13:48:14;23.03;12.79
43772;HTU21D;59066;54.782;32.024;2023-05-10T13:50:43;23.53;12.70
43772;HTU21D;59066;54.782;32.024;2023-05-10T13:53:10;23.54;12.51
43772;HTU21D;59066;54.782;32.024;2023-05-10T13:55:38;23.30;12.51
43772;HTU21D;59066;54.782;32.024;2023-05-10T13:58:05;22.97;12.66
43772;HTU21D;59066;54.782;32.024;2023-05-10T14:00:33;22.75;12.90
43772;HTU21D;59066;54.782;32.024;2023-05-10T14:03:00;22.19;13.28
43772;HTU21D;59066;54.782;32.024;2023-05-10T14:05:28;21.84;13.62
43772;HTU21D;59066;54.782;32.024;2023-05-10T14:07:56;21.68;13.71
43772;HTU21D;59066;54.782;32.024;2023-05-10T14:10:24;21.72;13.86
43772;HTU21D;59066;54.782;32.024;2023-05-10T14:12:51;21.64;13.89
43772;HTU21D;59066;54.782;32.024;2023-05-10T14:15:19;21.59;13.98
43772;HTU21D;59066;54.782;32.024;2023-05-10T14:17:47;21.69;13.97
43772;HTU21D;59066;54.782;32.024;2023-05-10T14:20:15;21.77;13.97
43772;HTU21D;59066;54.782;32.024;2023-05-10T14:22:42;21.76;14.00
43772;HTU21D;59066;54.782;32.024;2023-05-10T14:25:10;21.55;14.18
43772;HTU21D;59066;54.782;32.024;2023-05-10T14:27:37;21.38;14.36
43772;HTU21D;59066;54.782;32.024;2023-05-10T14:30:05;21.27;14.62
43772;HTU21D;59066;54.782;32.024;2023-05-10T14:32:33;21.03;15.06
43772;HTU21D;59066;54.782;32.024;2023-05-10T14:35:01;20.65;15.68
43772;HTU21D;59066;54.782;32.024;2023-05-10T14:37:29;20.46;15.74
43772;HTU21D;59066;54.782;32.024;2023-05-10T14:39:57;20.40;15.66
43772;HTU21D;59066;54.782;32.024;2023-05-10T14:42:24;20.24;15.79
43772;HTU21D;59066;54.782;32.024;2023-05-10T14:44:52;20.03;15.96
43772;HTU21D;59066;54.782;32.024;2023-05-10T14:47:19;19.90;16.19
43772;HTU21D;59066;54.782;32.024;2023-05-10T14:49:47;19.83;16.32
43772;HTU21D;59066;54.782;32.024;2023-05-10T14:52:14;19.74;16.21
43772;HTU21D;59066;54.782;32.024;2023-05-10T14:54:42;19.62;16.29
43772;HTU21D;59066;54.782;32.024;2023-05-10T14:57:10;19.55;16.35
43772;HTU21D;59066;54.782;32.024;2023-05-10T14:59:37;19.46;16.49
43772;HTU21D;59066;54.782;32.024;2023-05-10T15:02:05;19.42;16.56
43772;HTU21D;59066;54.782;32.024;2023-05-10T15:04:35;19.37;16.71
43772;HTU21D;59066;54.782;32.024;2023-05-10T15:07:03;19.30;16.92
43772;HTU21D;59066;54.782;32.024;2023-05-10T15:09:31;19.33;17.08
43772;HTU21D;59066;54.782;32.024;2023-05-10T15:11:59;19.45;17.20
43772;HTU21D;59066;54.782;32.024;2023-05-10T15:14:26;19.65;17.09
43772;HTU21D;59066;54.782;32.024;2023-05-10T15:16:54;19.66;17.16
43772;HTU21D;59066;54.782;32.024;2023-05-10T15:19:22;19.70;17.41
43772;HTU21D;59066;54.782;32.024;2023-05-10T15:21:49;19.63;17.54
43772;HTU21D;59066;54.782;32.024;2023-05-10T15:24:17;19.69;17.45
43772;HTU21D;59066;54.782;32.024;2023-05-10T15:26:44;19.75;17.37
43772;HTU21D;59066;54.782;32.024;2023-05-10T15:29:12;19.76;17.53
43772;HTU21D;59066;54.782;32.024;2023-05-10T15:31:47;19.80;17.43
43772;HTU21D;59066;54.782;32.024;2023-05-10T15:34:16;19.75;17.47
43772;HTU21D;59066;54.782;32.024;2023-05-10T15:36:44;19.69;17.48
43772;HTU21D;59066;54.782;32.024;2023-05-10T15:39:12;19.68;17.53
43772;HTU21D;59066;54.782;32.024;2023-05-10T15:41:39;19.58;17.51
43772;HTU21D;59066;54.782;32.024;2023-05-10T15:44:07;19.47;17.61
43772;HTU21D;59066;54.782;32.024;2023-05-10T15:46:35;19.32;17.76
43772;HTU21D;59066;54.782;32.024;2023-05-10T15:49:05;19.18;17.82
43772;HTU21D;59066;54.782;32.024;2023-05-10T15:51:33;19.11;17.94
43772;HTU21D;59066;54.782;32.024;2023-05-10T15:54:02;19.03;18.04
43772;HTU21D;59066;54.782;32.024;2023-05-10T15:56:33;18.96;18.15